sensor_id;sensor_type;location;lat;lon;timestamp;pressure;altitude;pressure_sealevel;temperature
14851;BMP180;7517;48.400;11.770;2023-05-10T00:01:25;95831.00;;;19.20
14851;BMP180;7517;48.400;11.770;2023-05-10T00:03:53;95834.00;;;19.20
14851;BMP180;7517;48.400;11.770;2023-05-10T00:06:20;95839.00;;;19.10
14851;BMP180;7517;48.400;11.770;2023-05-10T00:08:49;95839.00;;;19.10
14851;BMP180;7517;48.400;11.770;2023-05-10T00:11:17;95833.00;;;19.00
14851;BMP180;7517;48.400;11.770;2023-05-10T00:13:44;95842.00;;;19.00
14851;BMP180;7517;48.400;11.770;2023-05-10T00:16:11;95840.00;;;19.00
14851;BMP180;7517;48.400;11.770;2023-05-10T00:18:40;95842.00;;;18.90
14851;BMP180;7517;48.400;11.770;2023-05-10T00:21:07;95842.00;;;18.90
14851;BMP180;7517;48.400;11.770;2023-05-10T00:23:35;95841.00;;;18.90
14851;BMP180;7517;48.400;11.770;2023-05-10T00:26:06;95832.00;;;18.90
14851;BMP180;7517;48.400;11.770;2023-05-10T00:28:33;95840.00;;;18.80
14851;BMP180;7517;48.400;11.770;2023-05-10T00:31:00;95835.00;;;18.80
14851;BMP180;7517;48.400;11.770;2023-05-10T00:33:28;95837.00;;;18.80
14851;BMP180;7517;48.400;11.770;2023-05-10T00:35:55;95834.00;;;18.70
14851;BMP180;7517;48.400;11.770;2023-05-10T00:38:24;95841.00;;;18.70
14851;BMP180;7517;48.400;11.770;2023-05-10T00:40:51;95843.00;;;18.70
14851;BMP180;7517;48.400;11.770;2023-05-10T00:43:20;95832.00;;;18.70
14851;BMP180;7517;48.400;11.770;2023-05-10T00:45:48;95841.00;;;18.60
14851;BMP180;7517;48.400;11.770;2023-05-10T00:48:15;95835.00;;;18.60
14851;BMP180;7517;48.400;11.770;2023-05-10T00:50:43;95832.00;;;18.60
14851;BMP180;7517;48.400;11.770;2023-05-10T00:53:10;95831.00;;;18.60
14851;BMP180;7517;48.400;11.770;2023-05-10T00:55:38;95826.00;;;18.60
14851;BMP180;7517;48.400;11.770;2023-05-10T00:58:05;95827.00;;;18.60
14851;BMP180;7517;48.400;11.770;2023-05-10T01:00:36;95833.00;;;18.60
14851;BMP180;7517;48.400;11.770;2023-05-10T01:03:06;95826.00;;;18.60
14851;BMP180;7517;48.400;11.770;2023-05-10T01:05:33;95831.00;;;18.60
14851;BMP180;7517;48.400;11.770;2023-05-10T01:08:01;95820.00;;;18.60
14851;BMP180;7517;48.400;11.770;2023-05-10T01:10:29;95829.00;;;18.60
14851;BMP180;7517;48.400;11.770;2023-05-10T01:12:58;95824.00;;;18.60
14851;BMP180;7517;48.400;11.770;2023-05-10T01:15:26;95820.00;;;18.60
14851;BMP180;7517;48.400;11.770;2023-05-10T01:17:56;95826.00;;;18.60
14851;BMP180;7517;48.400;11.770;2023-05-10T01:20:24;95818.00;;;18.60
14851;BMP180;7517;48.400;11.770;2023-05-10T01:23:30;95817.00;;;18.60
14851;BMP180;7517;48.400;11.770;2023-05-10T01:26:32;95821.00;;;18.60
14851;BMP180;7517;48.400;11.770;2023-05-10T01:29:18;95817.00;;;18.60
14851;BMP180;7517;48.400;11.770;2023-05-10T01:32:16;95814.00;;;18.60
14851;BMP180;7517;48.400;11.770;2023-05-10T01:34:56;95821.00;;;18.60
14851;BMP180;7517;48.400;11.770;2023-05-10T01:37:38;95817.00;;;18.60
14851;BMP180;7517;48.400;11.770;2023-05-10T01:40:17;95824.00;;;18.60
14851;BMP180;7517;48.400;11.770;2023-05-10T01:42:51;95825.00;;;18.60
14851;BMP180;7517;48.400;11.770;2023-05-10T01:45:28;95823.00;;;18.60
14851;BMP180;7517;48.400;11.770;2023-05-10T01:48:06;95810.00;;;18.60
14851;BMP180;7517;48.400;11.770;2023-05-10T01:50:37;95818.00;;;18.60
14851;BMP180;7517;48.400;11.770;2023-05-10T01:53:08;95818.00;;;18.60
14851;BMP180;7517;48.400;11.770;2023-05-10T01:55:43;95819.00;;;18.60
14851;BMP180;7517;48.400;11.770;2023-05-10T01:58:21;95820.00;;;18.60
14851;BMP180;7517;48.400;11.770;2023-05-10T02:00:52;95825.00;;;18.60
14851;BMP180;7517;48.400;11.770;2023-05-10T02:03:24;95819.00;;;18.50
14851;BMP180;7517;48.400;11.770;2023-05-10T02:05:54;95814.00;;;18.50
14851;BMP180;7517;48.400;11.770;2023-05-10T02:08:24;95817.00;;;18.50
14851;BMP180;7517;48.400;11.770;2023-05-10T02:10:55;95821.00;;;18.50
14851;BMP180;7517;48.400;11.770;2023-05-10T02:13:24;95823.00;;;18.50
14851;BMP180;7517;48.400;11.770;2023-05-10T02:15:54;95819.00;;;18.50
14851;BMP180;7517;48.400;11.770;2023-05-10T02:18:25;95820.00;;;18.40
14851;BMP180;7517;48.400;11.770;2023-05-10T02:20:55;95825.00;;;18.40
14851;BMP180;7517;48.400;11.770;2023-05-10T02:23:24;95818.00;;;18.50
14851;BMP180;7517;48.400;11.770;2023-05-10T02:25:54;95817.00;;;18.50
14851;BMP180;7517;48.400;11.770;2023-05-10T02:28:24;95816.00;;;18.50
14851;BMP180;7517;48.400;11.770;2023-05-10T02:30:54;95822.00;;;18.40
14851;BMP180;7517;48.400;11.770;2023-05-10T02:33:26;95816.00;;;18.40
14851;BMP180;7517;48.400;11.770;2023-05-10T02:35:55;95822.00;;;18.40
14851;BMP180;7517;48.400;11.770;2023-05-10T02:38:25;95820.00;;;18.40
14851;BMP180;7517;48.400;11.770;2023-05-10T02:40:54;95822.00;;;18.40
14851;BMP180;7517;48.400;11.770;2023-05-10T02:43:24;95815.00;;;18.30
14851;BMP180;7517;48.400;11.770;2023-05-10T02:45:52;95823.00;;;18.30
14851;BMP180;7517;48.400;11.770;2023-05-10T02:48:19;95819.00;;;18.30
14851;BMP180;7517;48.400;11.770;2023-05-10T02:50:50;95816.00;;;18.30
14851;BMP180;7517;48.400;11.770;2023-05-10T02:53:23;95819.00;;;18.30
14851;BMP180;7517;48.400;11.770;2023-05-10T02:56:00;95822.00;;;18.30
14851;BMP180;7517;48.400;11.770;2023-05-10T02:58:29;95818.00;;;18.30
14851;BMP180;7517;48.400;11.770;2023-05-10T03:00:57;95824.00;;;18.30
14851;BMP180;7517;48.400;11.770;2023-05-10T03:03:24;95821.00;;;18.30
14851;BMP180;7517;48.400;11.770;2023-05-10T03:05:53;95820.00;;;18.30
14851;BMP180;7517;48.400;11.770;2023-05-10T03:08:23;95829.00;;;18.30
14851;BMP180;7517;48.400;11.770;2023-05-10T03:11:06;95830.00;;;18.30
14851;BMP180;7517;48.400;11.770;2023-05-10T03:13:46;95825.00;;;18.30
14851;BMP180;7517;48.400;11.770;2023-05-10T03:16:22;95828.00;;;18.30
14851;BMP180;7517;48.400;11.770;2023-05-10T03:19:01;95824.00;;;18.30
14851;BMP180;7517;48.400;11.770;2023-05-10T03:21:36;95824.00;;;18.30
14851;BMP180;7517;48.400;11.770;2023-05-10T03:24:08;95830.00;;;18.30
14851;BMP180;7517;48.400;11.770;2023-05-10T03:26:40;95833.00;;;18.30
14851;BMP180;7517;48.400;11.770;2023-05-10T03:29:11;95834.00;;;18.30
14851;BMP180;7517;48.400;11.770;2023-05-10T03:31:40;95833.00;;;18.30
14851;BMP180;7517;48.400;11.770;2023-05-10T03:34:08;95830.00;;;18.30
14851;BMP180;7517;48.400;11.770;2023-05-10T03:36:36;95837.00;;;18.30
14851;BMP180;7517;48.400;11.770;2023-05-10T03:39:04;95830.00;;;18.30
14851;BMP180;7517;48.400;11.770;2023-05-10T03:41:31;95843.00;;;18.30
14851;BMP180;7517;48.400;11.770;2023-05-10T03:43:58;95839.00;;;18.30
14851;BMP180;7517;48.400;11.770;2023-05-10T03:46:25;95844.00;;;18.30
14851;BMP180;7517;48.400;11.770;2023-05-10T03:48:53;95834.00;;;18.30
14851;BMP180;7517;48.400;11.770;2023-05-10T03:51:20;95833.00;;;18.30
14851;BMP180;7517;48.400;11.770;2023-05-10T03:53:49;95841.00;;;18.20
14851;BMP180;7517;48.400;11.770;2023-05-10T03:56:16;95844.00;;;18.20
14851;BMP180;7517;48.400;11.770;2023-05-10T03:58:43;95839.00;;;18.20
14851;BMP180;7517;48.400;11.770;2023-05-10T04:01:10;95847.00;;;18.20
14851;BMP180;7517;48.400;11.770;2023-05-10T04:03:38;95844.00;;;18.20
14851;BMP180;7517;48.400;11.770;2023-05-10T04:06:08;95838.00;;;18.20
14851;BMP180;7517;48.400;11.770;2023-05-10T04:08:37;95846.00;;;18.20
14851;BMP180;7517;48.400;11.770;2023-05-10T04:11:11;95849.00;;;18.20
14851;BMP180;7517;48.400;11.770;2023-05-10T04:13:40;95846.00;;;18.20
14851;BMP180;7517;48.400;11.770;2023-05-10T04:16:09;95845.00;;;18.20
14851;BMP180;7517;48.400;11.770;2023-05-10T04:18:36;95851.00;;;18.20
14851;BMP180;7517;48.400;11.770;2023-05-10T04:21:03;95853.00;;;18.20
14851;BMP180;7517;48.400;11.770;2023-05-10T04:23:30;95849.00;;;18.20
14851;BMP180;7517;48.400;11.770;2023-05-10T04:26:01;95846.00;;;18.10
14851;BMP180;7517;48.400;11.770;2023-05-10T04:28:30;95850.00;;;18.10
14851;BMP180;7517;48.400;11.770;2023-05-10T04:31:02;95849.00;;;18.10
14851;BMP180;7517;48.400;11.770;2023-05-10T04:33:29;95850.00;;;18.10
14851;BMP180;7517;48.400;11.770;2023-05-10T04:35:57;95849.00;;;18.20
14851;BMP180;7517;48.400;11.770;2023-05-10T04:38:24;95852.00;;;18.20
14851;BMP180;7517;48.400;11.770;2023-05-10T04:40:51;95849.00;;;18.20
14851;BMP180;7517;48.400;11.770;2023-05-10T04:43:18;95848.00;;;18.20
14851;BMP180;7517;48.400;11.770;2023-05-10T04:45:47;95854.00;;;18.20
14851;BMP180;7517;48.400;11.770;2023-05-10T04:48:16;95854.00;;;18.30
14851;BMP180;7517;48.400;11.770;2023-05-10T04:50:43;95858.00;;;18.30
14851;BMP180;7517;48.400;11.770;2023-05-10T04:53:10;95863.00;;;18.30
14851;BMP180;7517;48.400;11.770;2023-05-10T04:55:37;95860.00;;;18.30
14851;BMP180;7517;48.400;11.770;2023-05-10T04:58:05;95864.00;;;18.30
14851;BMP180;7517;48.400;11.770;2023-05-10T05:00:35;95862.00;;;18.30
14851;BMP180;7517;48.400;11.770;2023-05-10T05:03:04;95866.00;;;18.30
14851;BMP180;7517;48.400;11.770;2023-05-10T05:05:31;95870.00;;;18.40
14851;BMP180;7517;48.400;11.770;2023-05-10T05:07:59;95871.00;;;18.40
14851;BMP180;7517;48.400;11.770;2023-05-10T05:10:26;95874.00;;;18.40
14851;BMP180;7517;48.400;11.770;2023-05-10T05:12:53;95877.00;;;18.40
14851;BMP180;7517;48.400;11.770;2023-05-10T05:15:21;95880.00;;;18.40
14851;BMP180;7517;48.400;11.770;2023-05-10T05:17:48;95879.00;;;18.40
14851;BMP180;7517;48.400;11.770;2023-05-10T05:20:18;95878.00;;;18.40
14851;BMP180;7517;48.400;11.770;2023-05-10T05:25:19;95896.00;;;18.30
14851;BMP180;7517;48.400;11.770;2023-05-10T05:27:46;95896.00;;;18.30
14851;BMP180;7517;48.400;11.770;2023-05-10T05:30:13;95907.00;;;18.30
14851;BMP180;7517;48.400;11.770;2023-05-10T05:32:41;95907.00;;;18.30
14851;BMP180;7517;48.400;11.770;2023-05-10T05:35:08;95903.00;;;18.20
14851;BMP180;7517;48.400;11.770;2023-05-10T05:37:37;95906.00;;;18.20
14851;BMP180;7517;48.400;11.770;2023-05-10T05:40:06;95913.00;;;18.20
14851;BMP180;7517;48.400;11.770;2023-05-10T05:42:33;95910.00;;;18.20
14851;BMP180;7517;48.400;11.770;2023-05-10T05:45:00;95918.00;;;18.20
14851;BMP180;7517;48.400;11.770;2023-05-10T05:47:27;95926.00;;;18.20
14851;BMP180;7517;48.400;11.770;2023-05-10T05:49:54;95914.00;;;18.20
14851;BMP180;7517;48.400;11.770;2023-05-10T05:52:22;95922.00;;;18.20
14851;BMP180;7517;48.400;11.770;2023-05-10T05:54:50;95922.00;;;18.20
14851;BMP180;7517;48.400;11.770;2023-05-10T05:57:17;95926.00;;;18.30
14851;BMP180;7517;48.400;11.770;2023-05-10T05:59:45;95926.00;;;18.30
14851;BMP180;7517;48.400;11.770;2023-05-10T06:02:12;95939.00;;;18.30
14851;BMP180;7517;48.400;11.770;2023-05-10T06:04:39;95932.00;;;18.30
14851;BMP180;7517;48.400;11.770;2023-05-10T06:07:06;95936.00;;;18.30
14851;BMP180;7517;48.400;11.770;2023-05-10T06:09:33;95945.00;;;18.20
14851;BMP180;7517;48.400;11.770;2023-05-10T06:12:02;95949.00;;;18.20
14851;BMP180;7517;48.400;11.770;2023-05-10T06:14:29;95951.00;;;18.20
14851;BMP180;7517;48.400;11.770;2023-05-10T06:16:56;95939.00;;;18.20
14851;BMP180;7517;48.400;11.770;2023-05-10T06:19:25;95952.00;;;18.20
14851;BMP180;7517;48.400;11.770;2023-05-10T06:21:53;95959.00;;;18.20
14851;BMP180;7517;48.400;11.770;2023-05-10T06:24:20;95964.00;;;18.20
14851;BMP180;7517;48.400;11.770;2023-05-10T06:26:48;95961.00;;;18.20
14851;BMP180;7517;48.400;11.770;2023-05-10T06:29:17;95961.00;;;18.20
14851;BMP180;7517;48.400;11.770;2023-05-10T06:31:44;95973.00;;;18.30
14851;BMP180;7517;48.400;11.770;2023-05-10T06:34:12;95976.00;;;18.30
14851;BMP180;7517;48.400;11.770;2023-05-10T06:36:39;95980.00;;;18.40
14851;BMP180;7517;48.400;11.770;2023-05-10T06:39:06;95984.00;;;18.40
14851;BMP180;7517;48.400;11.770;2023-05-10T06:41:34;95984.00;;;18.40
14851;BMP180;7517;48.400;11.770;2023-05-10T06:44:01;95984.00;;;18.50
14851;BMP180;7517;48.400;11.770;2023-05-10T06:46:30;95981.00;;;18.50
14851;BMP180;7517;48.400;11.770;2023-05-10T06:48:58;95997.00;;;18.50
14851;BMP180;7517;48.400;11.770;2023-05-10T06:51:25;95990.00;;;18.50
14851;BMP180;7517;48.400;11.770;2023-05-10T06:53:52;95995.00;;;18.50
14851;BMP180;7517;48.400;11.770;2023-05-10T06:56:20;95993.00;;;18.50
14851;BMP180;7517;48.400;11.770;2023-05-10T06:58:47;95991.00;;;18.50
14851;BMP180;7517;48.400;11.770;2023-05-10T07:01:14;96000.00;;;18.50
14851;BMP180;7517;48.400;11.770;2023-05-10T07:03:43;96002.00;;;18.50
14851;BMP180;7517;48.400;11.770;2023-05-10T07:06:11;96000.00;;;18.60
14851;BMP180;7517;48.400;11.770;2023-05-10T07:08:38;95999.00;;;18.60
14851;BMP180;7517;48.400;11.770;2023-05-10T07:11:06;95993.00;;;18.70
14851;BMP180;7517;48.400;11.770;2023-05-10T07:13:34;96000.00;;;18.80
14851;BMP180;7517;48.400;11.770;2023-05-10T07:16:02;96001.00;;;18.90
14851;BMP180;7517;48.400;11.770;2023-05-10T07:18:29;96005.00;;;18.90
14851;BMP180;7517;48.400;11.770;2023-05-10T07:20:58;96010.00;;;19.00
14851;BMP180;7517;48.400;11.770;2023-05-10T07:23:26;96008.00;;;19.10
14851;BMP180;7517;48.400;11.770;2023-05-10T07:25:53;96011.00;;;19.20
14851;BMP180;7517;48.400;11.770;2023-05-10T07:28:22;96018.00;;;19.30
14851;BMP180;7517;48.400;11.770;2023-05-10T07:30:50;96023.00;;;19.40
14851;BMP180;7517;48.400;11.770;2023-05-10T07:33:17;96032.00;;;19.40
14851;BMP180;7517;48.400;11.770;2023-05-10T07:35:45;96028.00;;;19.50
14851;BMP180;7517;48.400;11.770;2023-05-10T07:38:15;96023.00;;;19.50
14851;BMP180;7517;48.400;11.770;2023-05-10T07:40:43;96028.00;;;19.60
14851;BMP180;7517;48.400;11.770;2023-05-10T07:43:10;96023.00;;;19.70
14851;BMP180;7517;48.400;11.770;2023-05-10T07:45:37;96023.00;;;19.80
14851;BMP180;7517;48.400;11.770;2023-05-10T07:48:05;96033.00;;;19.80
14851;BMP180;7517;48.400;11.770;2023-05-10T07:50:32;96027.00;;;19.90
14851;BMP180;7517;48.400;11.770;2023-05-10T07:52:59;96031.00;;;19.90
14851;BMP180;7517;48.400;11.770;2023-05-10T07:55:28;96038.00;;;20.00
14851;BMP180;7517;48.400;11.770;2023-05-10T07:57:55;96030.00;;;20.10
14851;BMP180;7517;48.400;11.770;2023-05-10T08:00:22;96040.00;;;20.20
14851;BMP180;7517;48.400;11.770;2023-05-10T08:02:50;96032.00;;;20.20
14851;BMP180;7517;48.400;11.770;2023-05-10T08:05:17;96037.00;;;20.30
14851;BMP180;7517;48.400;11.770;2023-05-10T08:07:47;96028.00;;;20.40
14851;BMP180;7517;48.400;11.770;2023-05-10T08:10:16;96036.00;;;20.40
14851;BMP180;7517;48.400;11.770;2023-05-10T08:12:45;96036.00;;;20.50
14851;BMP180;7517;48.400;11.770;2023-05-10T08:15:12;96035.00;;;20.60
14851;BMP180;7517;48.400;11.770;2023-05-10T08:17:40;96028.00;;;20.60
14851;BMP180;7517;48.400;11.770;2023-05-10T08:20:27;96026.00;;;20.70
14851;BMP180;7517;48.400;11.770;2023-05-10T08:23:01;96035.00;;;20.70
14851;BMP180;7517;48.400;11.770;2023-05-10T08:25:29;96032.00;;;20.70
14851;BMP180;7517;48.400;11.770;2023-05-10T08:27:58;96043.00;;;20.70
14851;BMP180;7517;48.400;11.770;2023-05-10T08:30:25;96041.00;;;20.80
14851;BMP180;7517;48.400;11.770;2023-05-10T08:32:53;96043.00;;;20.90
14851;BMP180;7517;48.400;11.770;2023-05-10T08:35:20;96038.00;;;21.00
14851;BMP180;7517;48.400;11.770;2023-05-10T08:37:47;96043.00;;;21.00
14851;BMP180;7517;48.400;11.770;2023-05-10T08:40:15;96044.00;;;21.00
14851;BMP180;7517;48.400;11.770;2023-05-10T08:42:51;96048.00;;;21.00
14851;BMP180;7517;48.400;11.770;2023-05-10T08:45:24;96048.00;;;21.00
14851;BMP180;7517;48.400;11.770;2023-05-10T08:47:53;96050.00;;;21.00
14851;BMP180;7517;48.400;11.770;2023-05-10T08:50:24;96050.00;;;21.00
14851;BMP180;7517;48.400;11.770;2023-05-10T08:52:55;96050.00;;;21.00
14851;BMP180;7517;48.400;11.770;2023-05-10T08:55:24;96051.00;;;21.10
14851;BMP180;7517;48.400;11.770;2023-05-10T08:57:52;96050.00;;;21.10
14851;BMP180;7517;48.400;11.770;2023-05-10T09:00:22;96055.00;;;21.10
14851;BMP180;7517;48.400;11.770;2023-05-10T09:02:50;96055.00;;;21.10
14851;BMP180;7517;48.400;11.770;2023-05-10T09:05:19;96050.00;;;21.10
14851;BMP180;7517;48.400;11.770;2023-05-10T09:07:46;96057.00;;;21.10
14851;BMP180;7517;48.400;11.770;2023-05-10T09:10:15;96066.00;;;21.00
14851;BMP180;7517;48.400;11.770;2023-05-10T09:12:44;96062.00;;;21.00
14851;BMP180;7517;48.400;11.770;2023-05-10T09:15:15;96064.00;;;21.00
14851;BMP180;7517;48.400;11.770;2023-05-10T09:17:47;96066.00;;;21.00
14851;BMP180;7517;48.400;11.770;2023-05-10T09:20:14;96053.00;;;21.00
14851;BMP180;7517;48.400;11.770;2023-05-10T09:22:43;96053.00;;;21.00
14851;BMP180;7517;48.400;11.770;2023-05-10T09:25:12;96064.00;;;21.00
14851;BMP180;7517;48.400;11.770;2023-05-10T09:27:47;96058.00;;;21.00
14851;BMP180;7517;48.400;11.770;2023-05-10T09:30:24;96052.00;;;20.90
14851;BMP180;7517;48.400;11.770;2023-05-10T09:32:55;96055.00;;;20.90
14851;BMP180;7517;48.400;11.770;2023-05-10T09:35:25;96058.00;;;21.00
14851;BMP180;7517;48.400;11.770;2023-05-10T09:37:55;96065.00;;;21.10
14851;BMP180;7517;48.400;11.770;2023-05-10T09:40:25;96066.00;;;21.10
14851;BMP180;7517;48.400;11.770;2023-05-10T09:42:54;96059.00;;;21.20
14851;BMP180;7517;48.400;11.770;2023-05-10T09:45:24;96055.00;;;21.20
14851;BMP180;7517;48.400;11.770;2023-05-10T09:47:54;96062.00;;;21.30
14851;BMP180;7517;48.400;11.770;2023-05-10T09:50:22;96054.00;;;21.30
14851;BMP180;7517;48.400;11.770;2023-05-10T09:52:54;96059.00;;;21.30
14851;BMP180;7517;48.400;11.770;2023-05-10T09:55:25;96069.00;;;21.30
14851;BMP180;7517;48.400;11.770;2023-05-10T09:58:00;96056.00;;;21.30
14851;BMP180;7517;48.400;11.770;2023-05-10T10:00:34;96067.00;;;21.30
14851;BMP180;7517;48.400;11.770;2023-05-10T10:03:04;96060.00;;;21.30
14851;BMP180;7517;48.400;11.770;2023-05-10T10:05:33;96056.00;;;21.30
14851;BMP180;7517;48.400;11.770;2023-05-10T10:08:04;96061.00;;;21.20
14851;BMP180;7517;48.400;11.770;2023-05-10T10:10:33;96061.00;;;21.10
14851;BMP180;7517;48.400;11.770;2023-05-10T10:13:02;96061.00;;;21.10
14851;BMP180;7517;48.400;11.770;2023-05-10T10:15:32;96066.00;;;21.00
14851;BMP180;7517;48.400;11.770;2023-05-10T10:18:02;96067.00;;;21.10
14851;BMP180;7517;48.400;11.770;2023-05-10T10:20:30;96067.00;;;21.00
14851;BMP180;7517;48.400;11.770;2023-05-10T10:22:57;96068.00;;;21.00
14851;BMP180;7517;48.400;11.770;2023-05-10T10:25:25;96073.00;;;21.00
14851;BMP180;7517;48.400;11.770;2023-05-10T10:28:18;96064.00;;;20.90
14851;BMP180;7517;48.400;11.770;2023-05-10T10:30:52;96054.00;;;21.00
14851;BMP180;7517;48.400;11.770;2023-05-10T10:33:59;96063.00;;;21.00
14851;BMP180;7517;48.400;11.770;2023-05-10T10:36:27;96063.00;;;21.00
14851;BMP180;7517;48.400;11.770;2023-05-10T10:39:00;96063.00;;;21.10
14851;BMP180;7517;48.400;11.770;2023-05-10T10:41:33;96059.00;;;21.10
14851;BMP180;7517;48.400;11.770;2023-05-10T10:44:33;96061.00;;;21.20
14851;BMP180;7517;48.400;11.770;2023-05-10T10:47:03;96063.00;;;21.20
14851;BMP180;7517;48.400;11.770;2023-05-10T10:49:38;96049.00;;;21.30
14851;BMP180;7517;48.400;11.770;2023-05-10T10:52:22;96048.00;;;21.40
14851;BMP180;7517;48.400;11.770;2023-05-10T10:54:56;96048.00;;;21.50
14851;BMP180;7517;48.400;11.770;2023-05-10T10:57:45;96050.00;;;21.60
14851;BMP180;7517;48.400;11.770;2023-05-10T11:00:38;96040.00;;;21.70
14851;BMP180;7517;48.400;11.770;2023-05-10T11:03:08;96043.00;;;21.80
14851;BMP180;7517;48.400;11.770;2023-05-10T11:05:42;96041.00;;;21.90
14851;BMP180;7517;48.400;11.770;2023-05-10T11:08:13;96040.00;;;21.90
14851;BMP180;7517;48.400;11.770;2023-05-10T11:11:03;96035.00;;;21.90
14851;BMP180;7517;48.400;11.770;2023-05-10T11:13:34;96037.00;;;21.90
14851;BMP180;7517;48.400;11.770;2023-05-10T11:16:14;96040.00;;;21.90
14851;BMP180;7517;48.400;11.770;2023-05-10T11:18:54;96039.00;;;22.00
14851;BMP180;7517;48.400;11.770;2023-05-10T11:21:23;96036.00;;;22.00
14851;BMP180;7517;48.400;11.770;2023-05-10T11:23:52;96034.00;;;22.10
14851;BMP180;7517;48.400;11.770;2023-05-10T11:26:23;96036.00;;;22.20
14851;BMP180;7517;48.400;11.770;2023-05-10T11:28:53;96042.00;;;22.30
14851;BMP180;7517;48.400;11.770;2023-05-10T11:31:22;96040.00;;;22.40
14851;BMP180;7517;48.400;11.770;2023-05-10T11:33:55;96040.00;;;22.40
14851;BMP180;7517;48.400;11.770;2023-05-10T11:36:27;96041.00;;;22.40
14851;BMP180;7517;48.400;11.770;2023-05-10T11:38:56;96049.00;;;22.30
14851;BMP180;7517;48.400;11.770;2023-05-10T11:41:25;96058.00;;;22.30
14851;BMP180;7517;48.400;11.770;2023-05-10T11:43:54;96055.00;;;22.20
14851;BMP180;7517;48.400;11.770;2023-05-10T11:46:26;96049.00;;;22.10
14851;BMP180;7517;48.400;11.770;2023-05-10T11:48:58;96053.00;;;22.00
14851;BMP180;7517;48.400;11.770;2023-05-10T11:51:28;96059.00;;;21.90
14851;BMP180;7517;48.400;11.770;2023-05-10T11:53:57;96057.00;;;21.90
14851;BMP180;7517;48.400;11.770;2023-05-10T11:56:25;96059.00;;;21.80
14851;BMP180;7517;48.400;11.770;2023-05-10T11:58:55;96057.00;;;21.70
14851;BMP180;7517;48.400;11.770;2023-05-10T12:01:24;96059.00;;;21.60
14851;BMP180;7517;48.400;11.770;2023-05-10T12:03:53;96053.00;;;21.50
14851;BMP180;7517;48.400;11.770;2023-05-10T12:06:28;96063.00;;;21.50
14851;BMP180;7517;48.400;11.770;2023-05-10T12:08:58;96048.00;;;21.40
14851;BMP180;7517;48.400;11.770;2023-05-10T12:11:26;96049.00;;;21.40
14851;BMP180;7517;48.400;11.770;2023-05-10T12:13:55;96059.00;;;21.40
14851;BMP180;7517;48.400;11.770;2023-05-10T12:16:24;96058.00;;;21.30
14851;BMP180;7517;48.400;11.770;2023-05-10T12:18:55;96060.00;;;21.30
14851;BMP180;7517;48.400;11.770;2023-05-10T12:21:22;96053.00;;;21.20
14851;BMP180;7517;48.400;11.770;2023-05-10T12:23:54;96051.00;;;21.20
14851;BMP180;7517;48.400;11.770;2023-05-10T12:26:23;96057.00;;;21.20
14851;BMP180;7517;48.400;11.770;2023-05-10T12:28:52;96055.00;;;21.20
14851;BMP180;7517;48.400;11.770;2023-05-10T12:31:19;96054.00;;;21.20
14851;BMP180;7517;48.400;11.770;2023-05-10T12:33:47;96053.00;;;21.20
14851;BMP180;7517;48.400;11.770;2023-05-10T12:36:16;96067.00;;;21.20
14851;BMP180;7517;48.400;11.770;2023-05-10T12:38:45;96076.00;;;21.20
14851;BMP180;7517;48.400;11.770;2023-05-10T12:41:17;96075.00;;;21.20
14851;BMP180;7517;48.400;11.770;2023-05-10T12:43:45;96081.00;;;21.20
14851;BMP180;7517;48.400;11.770;2023-05-10T12:46:14;96073.00;;;21.20
14851;BMP180;7517;48.400;11.770;2023-05-10T12:48:43;96081.00;;;21.20
14851;BMP180;7517;48.400;11.770;2023-05-10T12:51:18;96078.00;;;21.20
14851;BMP180;7517;48.400;11.770;2023-05-10T12:53:48;96087.00;;;21.20
14851;BMP180;7517;48.400;11.770;2023-05-10T12:56:17;96091.00;;;21.10
14851;BMP180;7517;48.400;11.770;2023-05-10T12:58:44;96093.00;;;21.10
14851;BMP180;7517;48.400;11.770;2023-05-10T13:01:13;96088.00;;;21.10
14851;BMP180;7517;48.400;11.770;2023-05-10T13:03:40;96093.00;;;21.10
14851;BMP180;7517;48.400;11.770;2023-05-10T13:06:08;96090.00;;;21.10
14851;BMP180;7517;48.400;11.770;2023-05-10T13:08:36;96093.00;;;21.00
14851;BMP180;7517;48.400;11.770;2023-05-10T13:11:03;96083.00;;;21.00
14851;BMP180;7517;48.400;11.770;2023-05-10T13:13:32;96095.00;;;20.90
14851;BMP180;7517;48.400;11.770;2023-05-10T13:16:00;96092.00;;;20.90
14851;BMP180;7517;48.400;11.770;2023-05-10T13:18:27;96088.00;;;20.90
14851;BMP180;7517;48.400;11.770;2023-05-10T13:20:54;96091.00;;;20.80
14851;BMP180;7517;48.400;11.770;2023-05-10T13:23:22;96100.00;;;20.70
14851;BMP180;7517;48.400;11.770;2023-05-10T13:25:50;96101.00;;;20.70
14851;BMP180;7517;48.400;11.770;2023-05-10T13:28:17;96098.00;;;20.60
14851;BMP180;7517;48.400;11.770;2023-05-10T13:30:46;96102.00;;;20.50
14851;BMP180;7517;48.400;11.770;2023-05-10T13:33:13;96095.00;;;20.50
14851;BMP180;7517;48.400;11.770;2023-05-10T13:35:40;96096.00;;;20.40
14851;BMP180;7517;48.400;11.770;2023-05-10T13:38:07;96092.00;;;20.40
14851;BMP180;7517;48.400;11.770;2023-05-10T13:40:35;96096.00;;;20.30
14851;BMP180;7517;48.400;11.770;2023-05-10T13:43:02;96102.00;;;20.30
14851;BMP180;7517;48.400;11.770;2023-05-10T13:45:30;96098.00;;;20.30
14851;BMP180;7517;48.400;11.770;2023-05-10T13:47:59;96098.00;;;20.20
14851;BMP180;7517;48.400;11.770;2023-05-10T13:50:26;96095.00;;;20.20
14851;BMP180;7517;48.400;11.770;2023-05-10T13:52:53;96092.00;;;20.10
14851;BMP180;7517;48.400;11.770;2023-05-10T13:55:21;96090.00;;;20.10
14851;BMP180;7517;48.400;11.770;2023-05-10T13:57:48;96090.00;;;20.10
14851;BMP180;7517;48.400;11.770;2023-05-10T14:00:16;96095.00;;;20.00
14851;BMP180;7517;48.400;11.770;2023-05-10T14:02:43;96087.00;;;20.00
14851;BMP180;7517;48.400;11.770;2023-05-10T14:05:12;96086.00;;;20.00
14851;BMP180;7517;48.400;11.770;2023-05-10T14:07:39;96079.00;;;20.00
14851;BMP180;7517;48.400;11.770;2023-05-10T14:10:07;96079.00;;;20.00
14851;BMP180;7517;48.400;11.770;2023-05-10T14:12:35;96093.00;;;20.00
14851;BMP180;7517;48.400;11.770;2023-05-10T14:15:03;96091.00;;;20.00
14851;BMP180;7517;48.400;11.770;2023-05-10T14:17:32;96092.00;;;19.90
14851;BMP180;7517;48.400;11.770;2023-05-10T14:20:00;96098.00;;;19.90
14851;BMP180;7517;48.400;11.770;2023-05-10T14:22:31;96092.00;;;19.90
14851;BMP180;7517;48.400;11.770;2023-05-10T14:24:58;96092.00;;;19.90
14851;BMP180;7517;48.400;11.770;2023-05-10T14:27:26;96090.00;;;19.80